Terminal Aerodrome Forecast
Issued by NWS

Home | Current Version | Previous Version | Text Only | Print | Product List | Glossary On
Versions: 1 2 3 4 5 6 7 8 9 10 11 12 13 14 15 16 17 18 19 20 21 22 23 24 25 26 27
000
FTUS41 KBUF 290900 AAA
TAFIAG
TAF AMD
KIAG 290900Z 2909/3006 VRB03KT P6SM SCT250
     FM291100 VRB03KT P6SM BKN200
     FM291400 26004KT P6SM BKN150
     FM292000 22006KT P6SM BKN140
     FM300200 VRB03KT P6SM BKN080=

USA.gov is the U.S. government's official web portal to all federal, state and local government web resources and services.